createdAt,value
2023-03-27T00:02:05.166Z,4.30
2023-03-27T00:04:32.092Z,4.30
2023-03-27T00:06:59.436Z,4.30
2023-03-27T00:09:28.516Z,4.20
2023-03-27T00:11:56.668Z,4.20
2023-03-27T00:14:24.002Z,4.20
2023-03-27T00:16:51.428Z,4.10
2023-03-27T00:19:18.970Z,4.10
2023-03-27T00:21:45.721Z,4.40
2023-03-27T00:24:12.626Z,4.10
2023-03-27T00:26:40.619Z,4.10
2023-03-27T00:29:07.945Z,4.10
2023-03-27T00:31:35.496Z,4.10
2023-03-27T00:34:03.479Z,4.10
2023-03-27T00:36:30.230Z,4.10
2023-03-27T00:38:57.037Z,4.10
2023-03-27T00:41:24.116Z,4.20
2023-03-27T00:43:54.147Z,4.20
2023-03-27T00:46:42.390Z,5.40
2023-03-27T00:49:11.845Z,4.10
2023-03-27T00:51:41.201Z,4.10
2023-03-27T00:54:09.816Z,4.10
2023-03-27T00:56:38.684Z,4.10
2023-03-27T00:59:10.273Z,4.20
2023-03-27T01:01:37.815Z,4.20
2023-03-27T01:04:07.242Z,4.20
2023-03-27T01:06:34.570Z,4.10
2023-03-27T01:09:01.213Z,4.10
2023-03-27T01:11:59.538Z,4.00
2023-03-27T01:14:50.310Z,4.00
2023-03-27T01:17:21.491Z,3.90
2023-03-27T01:20:07.205Z,4.30
2023-03-27T01:22:52.569Z,3.80
2023-03-27T01:25:41.937Z,3.80
2023-03-27T01:28:36.874Z,3.80
2023-03-27T01:31:40.718Z,3.80
2023-03-27T01:34:27.956Z,3.80
2023-03-27T01:37:29.157Z,3.80
2023-03-27T01:40:16.583Z,3.80
2023-03-27T01:43:00.691Z,3.80
2023-03-27T01:45:59.345Z,3.80
2023-03-27T01:49:04.507Z,3.80
2023-03-27T01:51:40.001Z,3.70
2023-03-27T01:54:24.428Z,3.60
2023-03-27T01:57:08.195Z,3.60
2023-03-27T01:59:41.700Z,3.50
2023-03-27T02:02:29.003Z,3.50
2023-03-27T02:05:25.486Z,3.50
2023-03-27T02:08:14.423Z,3.50
2023-03-27T02:10:44.982Z,3.40
2023-03-27T02:13:21.466Z,3.40
2023-03-27T02:15:50.225Z,3.30
2023-03-27T02:18:25.587Z,3.30
2023-03-27T02:20:52.200Z,3.30
2023-03-27T02:23:18.754Z,3.30
2023-03-27T02:25:46.282Z,3.20
2023-03-27T02:28:34.915Z,3.20
2023-03-27T02:31:32.348Z,3.10
2023-03-27T02:34:26.137Z,3.00
2023-03-27T02:37:03.810Z,3.00
2023-03-27T02:39:57.591Z,2.90
2023-03-27T02:42:50.158Z,2.90
2023-03-27T02:45:26.025Z,2.90
2023-03-27T02:48:04.403Z,2.90
2023-03-27T02:50:49.203Z,2.90
2023-03-27T02:53:21.880Z,2.90
2023-03-27T02:55:54.977Z,2.80
2023-03-27T02:58:45.360Z,2.90
2023-03-27T03:01:15.344Z,2.90
2023-03-27T03:03:53.718Z,2.90
2023-03-27T03:06:22.052Z,2.90
2023-03-27T03:08:49.283Z,2.90
2023-03-27T03:11:15.969Z,2.90
2023-03-27T03:13:42.588Z,2.90
2023-03-27T03:16:10.100Z,2.80
2023-03-27T03:18:36.921Z,2.80
2023-03-27T03:21:04.677Z,2.70
2023-03-27T03:23:32.008Z,2.70
2023-03-27T03:25:58.698Z,2.60
2023-03-27T03:28:28.579Z,2.60
2023-03-27T03:30:58.967Z,2.70
2023-03-27T03:33:27.892Z,2.40
2023-03-27T03:35:54.529Z,2.40
2023-03-27T03:38:25.098Z,2.30
2023-03-27T03:40:55.695Z,2.40
2023-03-27T03:43:24.071Z,2.30
2023-03-27T03:45:51.438Z,2.00
2023-03-27T03:48:18.947Z,2.20
2023-03-27T03:50:46.497Z,2.20
2023-03-27T03:53:14.722Z,2.10
2023-03-27T03:55:41.778Z,2.10
2023-03-27T03:58:09.233Z,2.10
2023-03-27T04:00:39.306Z,2.10
2023-03-27T04:03:08.638Z,2.00
2023-03-27T04:05:37.145Z,2.00
2023-03-27T04:08:07.222Z,2.00
2023-03-27T04:10:34.708Z,1.90
2023-03-27T04:13:01.513Z,2.00
2023-03-27T04:15:28.095Z,1.90
2023-03-27T04:17:54.821Z,1.90
2023-03-27T04:20:21.507Z,1.90
2023-03-27T04:22:50.578Z,1.80
2023-03-27T04:25:18.617Z,1.80
2023-03-27T04:27:45.387Z,1.80
2023-03-27T04:30:15.995Z,1.90
2023-03-27T04:32:43.628Z,1.80
2023-03-27T04:35:13.551Z,1.90
2023-03-27T04:37:41.764Z,1.50
2023-03-27T04:40:10.381Z,1.80
2023-03-27T04:42:42.495Z,1.90
2023-03-27T04:45:22.630Z,1.80
2023-03-27T04:47:49.350Z,1.80
2023-03-27T04:50:16.242Z,1.80
2023-03-27T04:52:43.111Z,0.00
2023-03-27T04:55:12.048Z,1.70
2023-03-27T04:57:39.656Z,1.70
2023-03-27T05:00:15.912Z,1.80
2023-03-27T05:02:42.977Z,1.80
2023-03-27T05:05:10.137Z,1.80
2023-03-27T05:07:37.130Z,1.90
2023-03-27T05:10:04.959Z,1.90
2023-03-27T05:12:31.977Z,1.90
2023-03-27T05:14:59.436Z,1.90
2023-03-27T05:17:26.182Z,2.00
2023-03-27T05:19:52.818Z,1.90
2023-03-27T05:22:19.387Z,1.90
2023-03-27T05:24:45.936Z,1.90
2023-03-27T05:27:12.469Z,0.30
2023-03-27T05:29:47.472Z,1.90
2023-03-27T05:32:14.669Z,2.00
2023-03-27T05:34:42.288Z,2.00
2023-03-27T05:37:09.196Z,2.00
2023-03-27T05:39:36.648Z,2.00
2023-03-27T05:42:03.490Z,2.10
2023-03-27T05:44:30.069Z,2.00
2023-03-27T05:46:56.742Z,0.20
2023-03-27T05:49:23.323Z,2.00
2023-03-27T05:51:50.867Z,2.00
2023-03-27T05:54:17.481Z,1.70
2023-03-27T05:56:44.138Z,2.00
2023-03-27T05:59:10.749Z,2.00
2023-03-27T06:01:37.368Z,2.00
2023-03-27T06:04:04.792Z,2.00
2023-03-27T06:06:32.871Z,2.30
2023-03-27T06:08:59.586Z,3.00
2023-03-27T06:11:26.205Z,4.00
2023-03-27T06:13:52.857Z,5.00
2023-03-27T06:16:22.778Z,5.90
2023-03-27T06:18:49.512Z,6.40
2023-03-27T06:21:16.255Z,6.70
2023-03-27T06:23:43.680Z,6.90
2023-03-27T06:26:10.335Z,6.90
2023-03-27T06:28:39.088Z,6.80
2023-03-27T06:31:06.423Z,6.90
2023-03-27T06:33:33.442Z,6.80
2023-03-27T06:36:03.162Z,6.80
2023-03-27T06:38:32.431Z,6.90
2023-03-27T06:40:59.915Z,6.40
2023-03-27T06:43:26.684Z,6.30
2023-03-27T06:45:53.729Z,6.40
2023-03-27T06:48:22.566Z,6.70
2023-03-27T06:50:52.183Z,7.00
2023-03-27T06:55:50.368Z,6.50
2023-03-27T06:58:18.904Z,6.10
2023-03-27T07:00:47.164Z,5.80
2023-03-27T07:03:14.253Z,5.40
2023-03-27T07:05:41.723Z,5.30
2023-03-27T07:10:45.078Z,5.10
2023-03-27T07:13:12.934Z,5.30
2023-03-27T07:15:39.512Z,5.50
2023-03-27T07:18:09.144Z,5.80
2023-03-27T07:20:36.341Z,6.30
2023-03-27T07:23:03.661Z,5.70
2023-03-27T07:25:36.981Z,5.90
2023-03-27T07:28:09.717Z,6.10
2023-03-27T07:30:37.012Z,5.80
2023-03-27T07:33:04.875Z,5.60
2023-03-27T07:35:31.593Z,5.50
2023-03-27T07:37:58.359Z,5.40
2023-03-27T07:40:36.941Z,5.10
2023-03-27T07:43:07.160Z,5.10
2023-03-27T07:45:34.854Z,5.10
2023-03-27T07:48:06.801Z,5.00
2023-03-27T07:50:33.772Z,5.00
2023-03-27T07:53:00.379Z,3.00
2023-03-27T07:55:29.591Z,4.80
2023-03-27T07:58:01.468Z,4.80
2023-03-27T08:00:29.648Z,4.80
2023-03-27T08:03:11.477Z,4.80
2023-03-27T08:05:38.424Z,4.90
2023-03-27T08:08:05.369Z,5.00
2023-03-27T08:10:32.195Z,4.80
2023-03-27T08:12:58.729Z,5.20
2023-03-27T08:15:25.555Z,4.90
2023-03-27T08:17:54.871Z,5.20
2023-03-27T08:20:23.775Z,5.20
2023-03-27T08:22:52.450Z,4.90
2023-03-27T08:25:19.843Z,5.10
2023-03-27T08:27:46.649Z,5.10
2023-03-27T08:30:16.722Z,5.30
2023-03-27T08:32:44.540Z,5.40
2023-03-27T08:35:12.097Z,5.10
2023-03-27T08:37:39.018Z,5.20
2023-03-27T08:40:13.066Z,5.20
2023-03-27T08:42:43.505Z,5.20
2023-03-27T08:45:20.188Z,5.40
2023-03-27T08:47:56.197Z,5.40
2023-03-27T08:50:32.367Z,5.50
2023-03-27T08:52:59.961Z,5.50
2023-03-27T08:55:38.846Z,5.60
2023-03-27T08:58:05.490Z,5.50
2023-03-27T09:00:39.418Z,5.60
2023-03-27T09:03:27.017Z,5.70
2023-03-27T09:05:58.580Z,5.80
2023-03-27T09:08:32.422Z,6.00
2023-03-27T09:11:09.965Z,6.50
2023-03-27T09:13:48.074Z,6.10
2023-03-27T09:16:26.247Z,6.10
2023-03-27T09:19:09.986Z,6.10
2023-03-27T09:21:50.599Z,5.90
2023-03-27T09:24:27.178Z,5.90
2023-03-27T09:27:06.735Z,6.60
2023-03-27T09:29:37.951Z,6.10
2023-03-27T09:32:13.450Z,6.10
2023-03-27T09:34:40.404Z,6.00
2023-03-27T09:37:12.444Z,5.80
2023-03-27T09:39:42.597Z,5.60
2023-03-27T09:42:19.225Z,5.90
2023-03-27T09:44:50.411Z,5.90
2023-03-27T09:47:22.538Z,6.10
2023-03-27T09:49:56.232Z,6.00
2023-03-27T09:52:43.265Z,6.30
2023-03-27T09:55:30.058Z,6.50
2023-03-27T09:58:14.167Z,6.60
2023-03-27T10:00:41.119Z,6.50
2023-03-27T10:03:16.782Z,6.60
2023-03-27T10:05:45.038Z,6.50
2023-03-27T10:08:37.594Z,6.70
2023-03-27T10:11:07.913Z,6.60
2023-03-27T10:13:35.307Z,6.70
2023-03-27T10:16:05.878Z,6.80
2023-03-27T10:18:35.283Z,7.00
2023-03-27T10:21:09.646Z,7.00
2023-03-27T10:23:45.319Z,7.20
2023-03-27T10:26:16.835Z,7.30
2023-03-27T10:28:48.934Z,7.40
2023-03-27T10:31:40.471Z,7.10
2023-03-27T10:34:32.639Z,7.30
2023-03-27T10:37:04.109Z,7.10
2023-03-27T10:39:35.700Z,7.10
2023-03-27T10:42:07.416Z,7.30
2023-03-27T10:44:37.529Z,7.40
2023-03-27T10:47:14.912Z,7.30
2023-03-27T10:49:47.627Z,6.70
2023-03-27T10:52:25.113Z,6.80
2023-03-27T10:55:24.610Z,6.90
2023-03-27T10:57:57.839Z,7.30
2023-03-27T11:00:38.052Z,7.50
2023-03-27T11:03:26.358Z,7.70
2023-03-27T11:05:54.360Z,7.70
2023-03-27T11:08:34.065Z,7.70
2023-03-27T11:11:15.995Z,7.80
2023-03-27T11:13:46.322Z,7.80
2023-03-27T11:16:27.179Z,7.70
2023-03-27T11:19:03.372Z,7.80
2023-03-27T11:21:44.577Z,8.10
2023-03-27T11:24:22.566Z,8.10
2023-03-27T11:27:20.868Z,8.00
2023-03-27T11:30:08.485Z,7.80
2023-03-27T11:33:11.889Z,7.60
2023-03-27T11:35:44.109Z,7.40
2023-03-27T11:38:18.160Z,7.70
2023-03-27T11:40:47.712Z,7.90
2023-03-27T11:43:17.041Z,8.00
2023-03-27T11:45:59.950Z,8.10
2023-03-27T11:48:43.761Z,8.20
2023-03-27T11:51:25.477Z,8.50
2023-03-27T11:54:05.341Z,8.60
2023-03-27T11:56:49.908Z,8.70
2023-03-27T11:59:26.017Z,8.80
2023-03-27T12:02:17.881Z,8.90
2023-03-27T12:05:12.893Z,8.80
2023-03-27T12:08:13.285Z,8.60
2023-03-27T12:10:42.462Z,8.40
2023-03-27T12:13:42.829Z,8.40
2023-03-27T12:16:34.634Z,8.30
2023-03-27T12:19:28.379Z,8.40
2023-03-27T12:22:24.066Z,8.20
2023-03-27T12:25:06.138Z,8.40
2023-03-27T12:27:50.527Z,8.50
2023-03-27T12:30:20.855Z,8.40
2023-03-27T12:33:18.816Z,8.60
2023-03-27T12:35:49.874Z,8.60
2023-03-27T12:38:32.469Z,8.50
2023-03-27T12:41:05.541Z,8.60
2023-03-27T12:43:39.885Z,8.70
2023-03-27T12:46:07.889Z,8.60
2023-03-27T12:48:56.459Z,8.40
2023-03-27T12:51:38.265Z,8.40
2023-03-27T12:54:19.023Z,8.40
2023-03-27T12:57:05.983Z,8.60
2023-03-27T12:59:55.903Z,8.00
2023-03-27T13:02:45.586Z,7.70
2023-03-27T13:05:31.262Z,7.70
2023-03-27T13:08:21.053Z,7.10
2023-03-27T13:11:14.033Z,7.10
2023-03-27T13:14:11.404Z,7.10
2023-03-27T13:16:58.211Z,6.80
2023-03-27T13:19:50.521Z,6.70
2023-03-27T13:22:40.522Z,6.80
2023-03-27T13:25:12.602Z,6.80
2023-03-27T13:28:04.422Z,6.70
2023-03-27T13:30:47.062Z,6.50
2023-03-27T13:33:39.098Z,6.40
2023-03-27T13:36:14.364Z,6.40
2023-03-27T13:38:53.043Z,6.30
2023-03-27T13:41:38.130Z,6.40
2023-03-27T13:44:10.689Z,6.40
2023-03-27T13:46:42.057Z,6.40
2023-03-27T13:49:37.905Z,6.40
2023-03-27T13:52:41.340Z,6.50
2023-03-27T13:55:17.096Z,6.70
2023-03-27T13:58:11.972Z,6.80
2023-03-27T14:01:09.374Z,7.10
2023-03-27T14:04:04.642Z,7.20
2023-03-27T14:06:52.312Z,7.30
2023-03-27T14:09:47.368Z,7.40
2023-03-27T14:12:23.906Z,7.50
2023-03-27T14:15:16.328Z,7.40
2023-03-27T14:17:56.156Z,7.40
2023-03-27T14:20:28.856Z,7.40
2023-03-27T14:23:00.736Z,7.40
2023-03-27T14:25:35.075Z,7.40
2023-03-27T14:28:02.533Z,7.20
2023-03-27T14:30:40.398Z,7.30
2023-03-27T14:33:09.690Z,7.40
2023-03-27T14:35:44.108Z,7.30
2023-03-27T14:38:23.227Z,7.10
2023-03-27T14:40:52.294Z,7.10
2023-03-27T14:43:19.862Z,7.20
2023-03-27T14:45:47.418Z,7.40
2023-03-27T14:48:32.267Z,7.50
2023-03-27T14:51:02.884Z,7.60
2023-03-27T14:53:36.452Z,7.80
2023-03-27T14:56:29.200Z,7.90
2023-03-27T14:59:00.779Z,7.90
2023-03-27T15:01:31.864Z,7.50
2023-03-27T15:04:03.247Z,7.60
2023-03-27T15:06:36.162Z,7.50
2023-03-27T15:09:05.562Z,7.40
2023-03-27T15:11:39.878Z,7.40
2023-03-27T15:14:15.404Z,7.40
2023-03-27T15:16:46.518Z,7.00
2023-03-27T15:19:38.972Z,7.00
2023-03-27T15:22:15.294Z,7.40
2023-03-27T15:24:52.622Z,7.60
2023-03-27T15:27:27.606Z,7.80
2023-03-27T15:30:01.886Z,7.70
2023-03-27T15:32:42.111Z,7.50
2023-03-27T15:35:14.420Z,7.40
2023-03-27T15:37:41.539Z,7.20
2023-03-27T15:40:13.314Z,7.00
2023-03-27T15:42:51.902Z,6.90
2023-03-27T15:45:23.964Z,7.00
2023-03-27T15:48:00.954Z,7.10
2023-03-27T15:50:28.063Z,7.20
2023-03-27T15:52:58.042Z,7.00
2023-03-27T15:55:47.258Z,7.10
2023-03-27T15:58:19.485Z,7.20
2023-03-27T16:00:52.622Z,7.10
2023-03-27T16:03:24.570Z,7.10
2023-03-27T16:05:54.476Z,6.80
2023-03-27T16:08:36.379Z,6.80
2023-03-27T16:11:04.275Z,6.80
2023-03-27T16:13:35.335Z,6.80
2023-03-27T16:16:06.413Z,6.70
2023-03-27T16:18:40.533Z,6.80
2023-03-27T16:21:10.446Z,6.90
2023-03-27T16:23:37.474Z,6.80
2023-03-27T16:26:07.003Z,6.80
2023-03-27T16:28:34.170Z,6.90
2023-03-27T16:31:10.742Z,6.70
2023-03-27T16:33:37.429Z,6.70
2023-03-27T16:36:04.883Z,6.40
2023-03-27T16:38:33.608Z,6.20
2023-03-27T16:41:01.397Z,6.10
2023-03-27T16:43:28.022Z,5.90
2023-03-27T16:45:55.789Z,5.80
2023-03-27T16:48:22.997Z,5.50
2023-03-27T16:50:49.584Z,5.30
2023-03-27T16:53:16.380Z,5.10
2023-03-27T16:55:44.687Z,5.20
2023-03-27T16:58:11.300Z,5.00
2023-03-27T17:00:37.869Z,4.90
2023-03-27T17:03:04.624Z,5.00
2023-03-27T17:05:34.277Z,5.00
2023-03-27T17:08:01.851Z,4.90
2023-03-27T17:10:30.204Z,4.80
2023-03-27T17:12:56.976Z,4.80
2023-03-27T17:15:23.511Z,4.90
2023-03-27T17:17:50.461Z,4.80
2023-03-27T17:20:17.225Z,4.80
2023-03-27T17:22:45.412Z,4.80
2023-03-27T17:25:12.723Z,6.60
2023-03-27T17:27:39.332Z,4.70
2023-03-27T17:30:07.096Z,4.70
2023-03-27T17:32:33.775Z,4.70
2023-03-27T17:35:00.465Z,4.60
2023-03-27T17:37:27.280Z,4.60
2023-03-27T17:39:53.840Z,4.50
2023-03-27T17:42:20.426Z,4.50
2023-03-27T17:44:47.057Z,4.50
2023-03-27T17:47:14.359Z,4.50
2023-03-27T17:49:41.188Z,4.50
2023-03-27T17:52:11.059Z,4.40
2023-03-27T17:54:37.936Z,4.30
2023-03-27T17:57:05.306Z,4.30
2023-03-27T17:59:32.002Z,4.20
2023-03-27T18:01:58.847Z,4.10
2023-03-27T18:04:26.341Z,4.10
2023-03-27T18:06:53.519Z,4.10
2023-03-27T18:09:20.381Z,4.00
2023-03-27T18:11:47.100Z,4.10
2023-03-27T18:14:13.960Z,3.80
2023-03-27T18:16:40.611Z,3.90
2023-03-27T18:19:08.738Z,3.90
2023-03-27T18:21:35.623Z,3.90
2023-03-27T18:24:02.243Z,3.80
2023-03-27T18:26:28.905Z,3.80
2023-03-27T18:28:55.561Z,3.80
2023-03-27T18:31:22.158Z,3.90
2023-03-27T18:33:48.915Z,3.90
2023-03-27T18:36:15.552Z,3.90
2023-03-27T18:38:42.551Z,3.90
2023-03-27T18:41:10.452Z,3.70
2023-03-27T18:43:37.644Z,4.00
2023-03-27T18:46:06.083Z,4.00
2023-03-27T18:48:36.153Z,3.90
2023-03-27T18:51:04.987Z,3.80
2023-03-27T18:53:31.972Z,3.70
2023-03-27T18:55:59.206Z,3.60
2023-03-27T18:58:27.801Z,3.50
2023-03-27T19:00:55.843Z,3.40
2023-03-27T19:03:24.485Z,3.20
2023-03-27T19:05:52.701Z,3.20
2023-03-27T19:08:20.277Z,3.10
2023-03-27T19:10:46.975Z,3.20
2023-03-27T19:13:13.619Z,3.10
2023-03-27T19:15:41.703Z,3.10
2023-03-27T19:18:08.886Z,3.10
2023-03-27T19:20:35.646Z,3.10
2023-03-27T19:23:02.299Z,3.10
2023-03-27T19:25:28.844Z,3.10
2023-03-27T19:27:55.787Z,3.10
2023-03-27T19:30:22.368Z,2.80
2023-03-27T19:32:50.142Z,3.10
2023-03-27T19:35:17.053Z,3.10
2023-03-27T19:37:43.620Z,3.20
2023-03-27T19:40:10.598Z,3.10
2023-03-27T19:42:37.251Z,3.10
2023-03-27T19:45:04.290Z,3.10
2023-03-27T19:47:31.426Z,3.10
2023-03-27T19:49:58.444Z,3.00
2023-03-27T19:52:26.156Z,3.00
2023-03-27T19:54:53.825Z,2.90
2023-03-27T19:57:21.437Z,2.90
2023-03-27T19:59:48.061Z,2.80
2023-03-27T20:02:14.997Z,2.80
2023-03-27T20:04:41.925Z,2.80
2023-03-27T20:07:09.979Z,2.80
2023-03-27T20:09:37.332Z,2.80
2023-03-27T20:12:04.691Z,3.10
2023-03-27T20:14:31.309Z,3.30
2023-03-27T20:16:57.904Z,2.90
2023-03-27T20:19:30.682Z,2.90
2023-03-27T20:22:00.476Z,2.90
2023-03-27T20:24:28.776Z,2.90
2023-03-27T20:26:57.078Z,2.90
2023-03-27T20:29:24.467Z,3.00
2023-03-27T20:31:51.169Z,2.90
2023-03-27T20:34:19.511Z,2.90
2023-03-27T20:36:46.996Z,2.90
2023-03-27T20:39:14.292Z,2.80
2023-03-27T20:41:41.235Z,2.80
2023-03-27T20:44:15.470Z,2.40
2023-03-27T20:46:47.697Z,2.80
2023-03-27T20:51:57.194Z,2.70
2023-03-27T20:54:23.746Z,2.80
2023-03-27T20:56:50.360Z,2.80
2023-03-27T20:59:17.204Z,2.70
2023-03-27T21:01:43.773Z,2.70
2023-03-27T21:04:12.146Z,2.70
2023-03-27T21:06:40.146Z,2.70
2023-03-27T21:09:07.460Z,2.70
2023-03-27T21:11:34.334Z,2.70
2023-03-27T21:14:00.958Z,2.70
2023-03-27T21:16:28.320Z,2.70
2023-03-27T21:18:54.963Z,2.60
2023-03-27T21:21:21.559Z,2.60
2023-03-27T21:23:48.265Z,2.40
2023-03-27T21:26:15.646Z,2.60
2023-03-27T21:28:42.238Z,2.60
2023-03-27T21:31:10.614Z,2.50
2023-03-27T21:33:38.050Z,2.50
2023-03-27T21:36:05.751Z,2.40
2023-03-27T21:38:32.442Z,2.40
2023-03-27T21:41:01.979Z,2.40
2023-03-27T21:43:29.064Z,2.30
2023-03-27T21:45:55.738Z,2.30
2023-03-27T21:48:22.365Z,2.30
2023-03-27T21:50:48.979Z,2.20
2023-03-27T21:53:16.840Z,2.10
2023-03-27T21:55:45.000Z,2.20
2023-03-27T21:58:11.605Z,2.10
2023-03-27T22:00:38.442Z,2.10
2023-03-27T22:03:05.304Z,2.10
2023-03-27T22:05:36.209Z,2.00
2023-03-27T22:08:02.812Z,2.00
2023-03-27T22:10:29.468Z,2.10
2023-03-27T22:12:56.067Z,2.10
2023-03-27T22:15:22.682Z,2.10
2023-03-27T22:17:49.349Z,2.20
2023-03-27T22:20:16.334Z,2.20
2023-03-27T22:22:42.876Z,2.30
2023-03-27T22:25:09.720Z,2.40
2023-03-27T22:27:36.808Z,2.40
2023-03-27T22:30:04.145Z,2.40
2023-03-27T22:32:30.987Z,2.40
2023-03-27T22:34:57.662Z,2.80
2023-03-27T22:37:25.113Z,2.50
2023-03-27T22:39:52.228Z,2.50
2023-03-27T22:42:18.803Z,2.50
2023-03-27T22:44:45.349Z,2.50
2023-03-27T22:47:11.918Z,2.90
2023-03-27T22:49:38.630Z,2.50
2023-03-27T22:52:06.028Z,2.50
2023-03-27T22:54:32.735Z,2.50
2023-03-27T22:56:59.378Z,2.50
2023-03-27T22:59:26.065Z,2.40
2023-03-27T23:01:52.799Z,2.50
2023-03-27T23:04:19.426Z,2.40
2023-03-27T23:06:46.382Z,2.50
2023-03-27T23:09:12.977Z,2.50
2023-03-27T23:11:39.795Z,2.50
2023-03-27T23:14:06.427Z,2.40
2023-03-27T23:16:36.014Z,2.30
2023-03-27T23:19:03.133Z,2.40
2023-03-27T23:21:29.771Z,2.40
2023-03-27T23:23:56.815Z,2.50
2023-03-27T23:26:23.394Z,2.50
2023-03-27T23:28:49.959Z,2.50
2023-03-27T23:31:18.448Z,2.50
2023-03-27T23:33:47.357Z,2.50
2023-03-27T23:36:17.244Z,2.50
2023-03-27T23:38:43.928Z,2.60
2023-03-27T23:41:12.654Z,2.80
2023-03-27T23:43:39.299Z,2.80
2023-03-27T23:46:08.643Z,2.70
2023-03-27T23:48:35.780Z,2.50
2023-03-27T23:51:02.562Z,2.10
2023-03-27T23:53:30.160Z,1.90
2023-03-27T23:55:58.861Z,1.70
2023-03-27T23:58:28.597Z,1.60
